createdAt,value
2023-02-19T00:00:21.622Z,6.69
2023-02-19T00:00:51.086Z,6.69
2023-02-19T00:01:22.289Z,6.69
2023-02-19T00:01:53.419Z,6.69
2023-02-19T00:02:23.897Z,6.59
2023-02-19T00:02:55.311Z,6.59
2023-02-19T00:03:26.140Z,6.59
2023-02-19T00:03:57.083Z,6.59
2023-02-19T00:04:28.352Z,6.41
2023-02-19T00:04:59.282Z,6.59
2023-02-19T00:05:31.659Z,6.59
2023-02-19T00:06:01.310Z,6.41
2023-02-19T00:06:31.886Z,6.51
2023-02-19T00:07:02.914Z,6.69
2023-02-19T00:07:34.043Z,6.69
2023-02-19T00:08:05.088Z,6.85
2023-02-19T00:08:36.088Z,6.85
2023-02-19T00:09:07.474Z,6.59
2023-02-19T00:09:38.416Z,6.59
2023-02-19T00:10:09.713Z,6.59
2023-02-19T00:10:39.938Z,6.59
2023-02-19T00:11:11.575Z,6.59
2023-02-19T00:11:42.350Z,6.59
2023-02-19T00:12:13.424Z,6.76
2023-02-19T00:12:44.300Z,6.76
2023-02-19T00:13:15.143Z,6.66
2023-02-19T00:13:46.205Z,6.66
2023-02-19T00:14:17.042Z,6.49
2023-02-19T00:14:48.466Z,6.49
2023-02-19T00:15:20.423Z,6.49
2023-02-19T00:15:50.524Z,6.49
2023-02-19T00:16:21.164Z,6.59
2023-02-19T00:16:52.147Z,6.59
2023-02-19T00:17:23.168Z,6.59
2023-02-19T00:17:54.081Z,6.59
2023-02-19T00:18:24.925Z,6.59
2023-02-19T00:18:55.934Z,6.59
2023-02-19T00:19:27.236Z,6.59
2023-02-19T00:19:58.740Z,6.59
2023-02-19T00:20:29.615Z,6.59
2023-02-19T00:21:00.114Z,6.59
2023-02-19T00:21:32.148Z,6.59
2023-02-19T00:22:02.313Z,6.59
2023-02-19T00:22:33.448Z,6.59
2023-02-19T00:23:04.339Z,6.59
2023-02-19T00:23:35.277Z,6.59
2023-02-19T00:24:06.188Z,6.69
2023-02-19T00:24:37.414Z,6.69
2023-02-19T00:25:08.812Z,6.69
2023-02-19T00:25:39.489Z,6.69
2023-02-19T00:26:18.130Z,6.69
2023-02-19T00:26:41.101Z,6.69
2023-02-19T00:27:12.218Z,6.69
2023-02-19T00:27:43.316Z,6.59
2023-02-19T00:28:14.478Z,6.41
2023-02-19T00:28:45.110Z,6.59
2023-02-19T00:29:16.523Z,6.59
2023-02-19T00:29:47.052Z,6.51
2023-02-19T00:30:19.183Z,6.51
2023-02-19T00:30:49.283Z,6.69
2023-02-19T00:31:20.404Z,6.51
2023-02-19T00:31:51.362Z,6.51
2023-02-19T00:32:22.404Z,6.69
2023-02-19T00:32:53.109Z,6.69
2023-02-19T00:33:24.347Z,6.69
2023-02-19T00:33:55.173Z,6.51
2023-02-19T00:34:26.649Z,6.69
2023-02-19T00:34:57.193Z,6.69
2023-02-19T00:35:28.862Z,6.69
2023-02-19T00:35:59.245Z,6.69
2023-02-19T00:36:30.127Z,6.69
2023-02-19T00:37:01.079Z,6.59
2023-02-19T00:37:32.160Z,6.59
2023-02-19T00:38:03.535Z,6.76
2023-02-19T00:38:34.146Z,6.59
2023-02-19T00:39:05.124Z,6.59
2023-02-19T00:39:36.451Z,6.59
2023-02-19T00:40:07.740Z,6.59
2023-02-19T00:40:38.405Z,6.59
2023-02-19T00:41:09.391Z,6.59
2023-02-19T00:41:40.171Z,6.59
2023-02-19T00:42:11.485Z,6.59
2023-02-19T00:42:42.158Z,6.59
2023-02-19T00:43:13.329Z,6.59
2023-02-19T00:43:44.183Z,6.41
2023-02-19T00:44:15.071Z,6.59
2023-02-19T00:44:46.176Z,6.59
2023-02-19T00:45:18.618Z,6.69
2023-02-19T00:45:48.208Z,6.69
2023-02-19T00:46:19.235Z,6.85
2023-02-19T00:46:50.595Z,6.76
2023-02-19T00:47:21.540Z,6.76
2023-02-19T00:47:52.171Z,6.66
2023-02-19T00:48:23.099Z,6.66
2023-02-19T00:48:54.157Z,6.66
2023-02-19T00:49:25.561Z,6.66
2023-02-19T00:49:56.493Z,6.49
2023-02-19T00:50:28.053Z,6.49
2023-02-19T00:50:58.418Z,6.59
2023-02-19T00:51:29.364Z,6.76
2023-02-19T00:52:00.061Z,6.76
2023-02-19T00:52:31.479Z,6.66
2023-02-19T00:53:03.123Z,6.49
2023-02-19T00:53:33.435Z,6.49
2023-02-19T00:54:05.017Z,6.49
2023-02-19T00:54:35.425Z,6.59
2023-02-19T00:55:07.082Z,6.59
2023-02-19T00:55:37.627Z,6.76
2023-02-19T00:56:08.358Z,6.76
2023-02-19T00:56:39.458Z,6.49
2023-02-19T00:57:10.557Z,6.66
2023-02-19T00:57:41.172Z,6.49
2023-02-19T00:58:12.189Z,6.66
2023-02-19T00:58:43.488Z,6.66
2023-02-19T00:59:14.577Z,6.66
2023-02-19T00:59:45.580Z,6.66
2023-02-19T01:00:17.422Z,6.49
2023-02-19T01:00:47.588Z,6.49
2023-02-19T01:01:18.559Z,6.49
2023-02-19T01:01:49.777Z,6.49
2023-02-19T01:02:20.456Z,6.59
2023-02-19T01:02:51.667Z,6.59
2023-02-19T01:03:22.623Z,6.59
2023-02-19T01:03:53.622Z,6.76
2023-02-19T01:04:24.118Z,6.66
2023-02-19T01:04:55.281Z,6.84
2023-02-19T01:05:26.764Z,6.84
2023-02-19T01:05:57.451Z,6.84
2023-02-19T01:06:28.384Z,6.56
2023-02-19T01:06:59.504Z,6.64
2023-02-19T01:07:30.500Z,6.64
2023-02-19T01:08:01.581Z,6.46
2023-02-19T01:08:32.125Z,6.46
2023-02-19T01:09:03.229Z,6.46
2023-02-19T01:09:34.423Z,6.56
2023-02-19T01:10:05.973Z,6.56
2023-02-19T01:10:36.684Z,6.56
2023-02-19T01:11:08.048Z,6.56
2023-02-19T01:11:38.197Z,6.66
2023-02-19T01:12:09.604Z,6.66
2023-02-19T01:12:40.231Z,6.66
2023-02-19T01:13:11.256Z,6.66
2023-02-19T01:13:42.318Z,6.66
2023-02-19T01:14:13.426Z,6.66
2023-02-19T01:14:44.502Z,6.66
2023-02-19T01:15:16.668Z,6.66
2023-02-19T01:15:46.599Z,6.49
2023-02-19T01:16:17.428Z,6.49
2023-02-19T01:16:48.156Z,6.49
2023-02-19T01:17:19.202Z,6.59
2023-02-19T01:17:50.184Z,6.59
2023-02-19T01:18:21.320Z,6.59
2023-02-19T01:18:52.536Z,6.76
2023-02-19T01:19:23.498Z,6.76
2023-02-19T01:19:54.456Z,6.76
2023-02-19T01:20:25.760Z,6.66
2023-02-19T01:20:56.117Z,6.66
2023-02-19T01:21:27.159Z,6.49
2023-02-19T01:21:58.303Z,6.49
2023-02-19T01:22:29.397Z,6.66
2023-02-19T01:23:00.210Z,6.66
2023-02-19T01:23:31.534Z,6.66
2023-02-19T01:24:02.398Z,6.66
2023-02-19T01:24:34.436Z,6.66
2023-02-19T01:25:04.625Z,6.66
2023-02-19T01:25:35.599Z,6.49
2023-02-19T01:26:06.398Z,6.49
2023-02-19T01:26:37.282Z,6.49
2023-02-19T01:27:08.261Z,6.59
2023-02-19T01:27:39.384Z,6.59
2023-02-19T01:28:10.242Z,6.69
2023-02-19T01:28:41.267Z,6.69
2023-02-19T01:29:12.212Z,6.69
2023-02-19T01:29:43.267Z,6.69
2023-02-19T01:30:15.313Z,6.69
2023-02-19T01:30:45.368Z,6.76
2023-02-19T01:31:16.616Z,6.76
2023-02-19T01:31:47.624Z,6.76
2023-02-19T01:32:18.420Z,6.76
2023-02-19T01:32:49.557Z,6.76
2023-02-19T01:33:20.408Z,6.76
2023-02-19T01:33:51.231Z,6.76
2023-02-19T01:34:22.280Z,6.76
2023-02-19T01:34:53.252Z,6.76
2023-02-19T01:35:24.794Z,6.76
2023-02-19T01:35:55.312Z,6.76
2023-02-19T01:36:26.890Z,6.59
2023-02-19T01:36:57.269Z,6.76
2023-02-19T01:37:28.191Z,6.76
2023-02-19T01:37:59.425Z,6.59
2023-02-19T01:38:30.388Z,6.59
2023-02-19T01:39:01.348Z,6.59
2023-02-19T01:39:32.422Z,6.69
2023-02-19T01:40:03.832Z,6.69
2023-02-19T01:40:34.403Z,6.85
2023-02-19T01:41:05.277Z,6.85
2023-02-19T01:41:36.636Z,6.76
2023-02-19T01:42:07.318Z,6.59
2023-02-19T01:42:38.302Z,6.59
2023-02-19T01:43:09.352Z,6.59
2023-02-19T01:43:40.398Z,6.85
2023-02-19T01:44:11.492Z,6.85
2023-02-19T01:44:42.441Z,6.85
2023-02-19T01:45:14.434Z,6.59
2023-02-19T01:45:44.572Z,6.59
2023-02-19T01:46:15.279Z,6.59
2023-02-19T01:46:46.584Z,6.85
2023-02-19T01:47:17.539Z,6.85
2023-02-19T01:47:48.549Z,6.85
2023-02-19T01:48:19.354Z,6.69
2023-02-19T01:48:50.344Z,6.85
2023-02-19T01:49:21.339Z,6.76
2023-02-19T01:49:52.288Z,6.76
2023-02-19T01:50:24.025Z,6.59
2023-02-19T01:50:54.698Z,6.69
2023-02-19T01:51:25.705Z,6.85
2023-02-19T01:51:56.374Z,6.76
2023-02-19T01:52:27.390Z,6.76
2023-02-19T01:53:01.871Z,6.76
2023-02-19T01:53:29.707Z,6.76
2023-02-19T01:54:00.656Z,6.76
2023-02-19T01:54:31.581Z,6.59
2023-02-19T01:55:03.274Z,6.59
2023-02-19T01:55:33.789Z,6.76
2023-02-19T01:56:05.774Z,6.76
2023-02-19T01:56:35.736Z,6.76
2023-02-19T01:57:07.565Z,6.76
2023-02-19T01:57:37.524Z,6.76
2023-02-19T01:58:08.617Z,6.76
2023-02-19T01:58:39.544Z,6.76
2023-02-19T01:59:10.597Z,6.76
2023-02-19T01:59:41.729Z,6.76
2023-02-19T02:00:13.392Z,6.76
2023-02-19T02:00:43.808Z,6.76
2023-02-19T02:01:14.688Z,6.59
2023-02-19T02:01:45.533Z,6.69
2023-02-19T02:02:16.620Z,6.69
2023-02-19T02:02:47.344Z,6.85
2023-02-19T02:03:18.382Z,6.85
2023-02-19T02:03:49.729Z,6.85
2023-02-19T02:04:20.764Z,6.69
2023-02-19T02:04:51.406Z,6.85
2023-02-19T02:05:22.833Z,6.85
2023-02-19T02:05:54.003Z,6.76
2023-02-19T02:06:24.737Z,6.69
2023-02-19T02:06:55.738Z,6.69
2023-02-19T02:07:26.571Z,6.85
2023-02-19T02:07:57.434Z,6.76
2023-02-19T02:08:28.585Z,6.85
2023-02-19T02:08:59.805Z,6.69
2023-02-19T02:09:30.378Z,6.69
2023-02-19T02:10:02.258Z,6.69
2023-02-19T02:10:32.409Z,6.69
2023-02-19T02:11:03.806Z,6.69
2023-02-19T02:11:34.695Z,6.69
2023-02-19T02:12:05.500Z,6.69
2023-02-19T02:12:36.656Z,6.85
2023-02-19T02:13:07.539Z,6.69
2023-02-19T02:13:38.550Z,6.69
2023-02-19T02:14:09.411Z,6.69
2023-02-19T02:14:40.341Z,6.69
2023-02-19T02:15:12.552Z,6.69
2023-02-19T02:15:42.616Z,6.85
2023-02-19T02:16:13.910Z,6.85
2023-02-19T02:16:44.512Z,6.85
2023-02-19T02:17:15.804Z,7.03
2023-02-19T02:17:46.555Z,6.76
2023-02-19T02:18:17.422Z,6.59
2023-02-19T02:18:48.625Z,6.59
2023-02-19T02:19:19.387Z,6.59
2023-02-19T02:19:50.462Z,6.69
2023-02-19T02:20:22.092Z,6.85
2023-02-19T02:20:52.536Z,6.69
2023-02-19T02:21:24.022Z,6.69
2023-02-19T02:21:54.829Z,6.69
2023-02-19T02:22:25.854Z,6.69
2023-02-19T02:22:56.940Z,6.69
2023-02-19T02:23:27.666Z,6.78
2023-02-19T02:23:58.851Z,6.78
2023-02-19T02:24:29.423Z,6.78
2023-02-19T02:25:00.760Z,6.95
2023-02-19T02:25:31.630Z,6.85
2023-02-19T02:26:02.731Z,6.76
2023-02-19T02:26:33.408Z,6.76
2023-02-19T02:27:04.510Z,6.76
2023-02-19T02:27:36.404Z,6.76
2023-02-19T02:28:06.928Z,6.59
2023-02-19T02:28:38.786Z,6.76
2023-02-19T02:29:08.870Z,6.76
2023-02-19T02:29:39.508Z,6.76
2023-02-19T02:30:11.678Z,6.76
2023-02-19T02:30:41.649Z,6.76
2023-02-19T02:31:12.897Z,6.76
2023-02-19T02:31:43.677Z,6.94
2023-02-19T02:32:14.651Z,6.84
2023-02-19T02:32:45.869Z,6.66
2023-02-19T02:33:16.521Z,6.66
2023-02-19T02:33:47.513Z,6.66
2023-02-19T02:34:18.549Z,6.66
2023-02-19T02:34:49.578Z,6.76
2023-02-19T02:35:21.479Z,6.76
2023-02-19T02:35:51.864Z,6.76
2023-02-19T02:36:22.882Z,6.76
2023-02-19T02:36:53.724Z,6.76
2023-02-19T02:37:25.034Z,6.76
2023-02-19T02:37:55.709Z,6.76
2023-02-19T02:38:26.524Z,6.94
2023-02-19T02:38:57.484Z,7.11
2023-02-19T02:39:28.634Z,6.94
2023-02-19T02:39:59.439Z,6.84
2023-02-19T02:40:31.899Z,6.84
2023-02-19T02:41:01.510Z,6.92
2023-02-19T02:41:32.589Z,6.74
2023-02-19T02:42:03.554Z,6.74
2023-02-19T02:42:34.685Z,6.92
2023-02-19T02:43:05.595Z,6.92
2023-02-19T02:43:36.821Z,6.92
2023-02-19T02:44:08.384Z,6.92
2023-02-19T02:44:38.538Z,6.92
2023-02-19T02:45:10.568Z,6.92
2023-02-19T02:45:40.913Z,6.82
2023-02-19T02:46:11.832Z,6.82
2023-02-19T02:46:42.614Z,6.64
2023-02-19T02:47:13.473Z,6.64
2023-02-19T02:47:44.448Z,6.92
2023-02-19T02:48:15.481Z,6.92
2023-02-19T02:48:46.653Z,6.92
2023-02-19T02:49:17.883Z,6.99
2023-02-19T02:49:48.757Z,6.99
2023-02-19T02:50:20.389Z,6.72
2023-02-19T02:50:51.093Z,6.54
2023-02-19T02:51:21.621Z,6.54
2023-02-19T02:51:52.780Z,6.46
2023-02-19T02:52:23.536Z,6.74
2023-02-19T02:52:54.533Z,6.66
2023-02-19T02:53:25.568Z,6.66
2023-02-19T02:53:56.983Z,6.84
2023-02-19T02:54:27.642Z,6.66
2023-02-19T02:55:00.212Z,6.66
2023-02-19T02:55:30.216Z,6.84
2023-02-19T02:56:00.780Z,6.66
2023-02-19T02:56:31.503Z,6.66
2023-02-19T02:57:02.772Z,6.66
2023-02-19T02:57:33.567Z,6.66
2023-02-19T02:58:04.939Z,6.66
2023-02-19T02:58:35.738Z,6.76
2023-02-19T02:59:07.848Z,6.76
2023-02-19T02:59:37.556Z,6.76
2023-02-19T03:00:10.517Z,6.94
2023-02-19T03:00:39.538Z,6.66
2023-02-19T03:01:11.434Z,6.66
2023-02-19T03:01:41.644Z,6.66
2023-02-19T03:02:12.767Z,6.76
2023-02-19T03:02:43.605Z,6.66
2023-02-19T03:03:47.486Z,6.76
2023-02-19T03:03:50.213Z,6.76
2023-02-19T03:04:16.537Z,6.76
2023-02-19T03:04:47.538Z,6.94
2023-02-19T03:05:19.489Z,6.66
2023-02-19T03:05:49.966Z,6.66
2023-02-19T03:06:20.812Z,6.66
2023-02-19T03:06:51.582Z,6.66
2023-02-19T03:07:22.632Z,6.84
2023-02-19T03:07:53.528Z,6.84
2023-02-19T03:08:25.229Z,6.66
2023-02-19T03:08:55.567Z,6.66
2023-02-19T03:09:26.632Z,6.66
2023-02-19T03:09:57.724Z,6.66
2023-02-19T03:10:29.197Z,6.66
2023-02-19T03:10:59.818Z,6.84
2023-02-19T03:11:30.829Z,6.84
2023-02-19T03:12:01.832Z,6.84
2023-02-19T03:12:33.168Z,6.74
2023-02-19T03:13:03.569Z,6.56
2023-02-19T03:13:34.954Z,6.56
2023-02-19T03:14:05.644Z,6.56
2023-02-19T03:14:36.616Z,6.66
2023-02-19T03:15:09.143Z,6.66
2023-02-19T03:15:38.739Z,6.66
2023-02-19T03:16:09.756Z,6.84
2023-02-19T03:16:42.730Z,6.84
2023-02-19T03:17:11.742Z,6.74
2023-02-19T03:17:42.989Z,6.74
2023-02-19T03:18:14.052Z,6.56
2023-02-19T03:18:44.924Z,6.56
2023-02-19T03:19:15.683Z,6.74
2023-02-19T03:19:46.871Z,6.74
2023-02-19T03:20:18.352Z,6.74
2023-02-19T03:20:48.559Z,6.74
2023-02-19T03:21:19.881Z,6.56
2023-02-19T03:21:51.056Z,6.56
2023-02-19T03:22:22.312Z,6.56
2023-02-19T03:22:53.003Z,6.74
2023-02-19T03:23:23.627Z,6.74
2023-02-19T03:23:55.083Z,6.74
2023-02-19T03:24:25.808Z,6.74
2023-02-19T03:24:56.833Z,6.74
2023-02-19T03:25:28.150Z,6.74
2023-02-19T03:25:59.379Z,6.74
2023-02-19T03:26:30.079Z,6.74
2023-02-19T03:27:00.797Z,6.56
2023-02-19T03:27:32.027Z,6.74
2023-02-19T03:28:02.911Z,6.74
2023-02-19T03:28:34.031Z,6.56
2023-02-19T03:29:05.280Z,6.56
2023-02-19T03:29:35.854Z,6.56
2023-02-19T03:30:07.848Z,6.56
2023-02-19T03:30:40.207Z,6.56
2023-02-19T03:31:09.723Z,6.56
2023-02-19T03:31:42.463Z,6.56
2023-02-19T03:32:11.157Z,6.56
2023-02-19T03:32:42.297Z,6.56
2023-02-19T03:33:12.705Z,6.56
2023-02-19T03:33:43.885Z,6.56
2023-02-19T03:34:15.131Z,6.56
2023-02-19T03:34:45.727Z,6.56
2023-02-19T03:35:17.359Z,6.56
2023-02-19T03:35:47.694Z,6.56
2023-02-19T03:36:19.040Z,6.56
2023-02-19T03:36:49.885Z,6.56
2023-02-19T03:37:20.933Z,6.56
2023-02-19T03:37:51.940Z,6.56
2023-02-19T03:38:24.856Z,6.56
2023-02-19T03:38:54.025Z,6.74
2023-02-19T03:39:25.061Z,6.56
2023-02-19T03:39:55.750Z,6.46
2023-02-19T03:40:27.473Z,6.46
2023-02-19T03:40:58.003Z,6.46
2023-02-19T03:41:29.185Z,6.46
2023-02-19T03:41:59.650Z,6.46
2023-02-19T03:42:31.141Z,6.46
2023-02-19T03:43:02.312Z,6.46
2023-02-19T03:43:34.657Z,6.64
2023-02-19T03:44:04.083Z,6.64
2023-02-19T03:44:35.048Z,6.46
2023-02-19T03:45:06.591Z,6.46
2023-02-19T03:45:36.724Z,6.46
2023-02-19T03:46:07.774Z,6.64
2023-02-19T03:46:38.754Z,6.64
2023-02-19T03:47:09.724Z,6.46
2023-02-19T03:47:41.088Z,6.46
2023-02-19T03:48:12.094Z,6.46
2023-02-19T03:48:42.824Z,6.46
2023-02-19T03:49:13.807Z,6.46
2023-02-19T03:49:46.294Z,6.46
2023-02-19T03:50:16.349Z,6.46
2023-02-19T03:50:47.062Z,6.46
2023-02-19T03:51:17.993Z,6.37
2023-02-19T03:51:49.107Z,6.37
2023-02-19T03:52:20.383Z,6.54
2023-02-19T03:52:50.969Z,6.54
2023-02-19T03:53:21.692Z,6.54
2023-02-19T03:53:52.665Z,6.54
2023-02-19T03:54:23.871Z,6.45
2023-02-19T03:54:55.116Z,6.45
2023-02-19T03:55:26.321Z,6.35
2023-02-19T03:55:56.787Z,6.35
2023-02-19T03:56:27.938Z,6.35
2023-02-19T03:56:59.197Z,6.35
2023-02-19T03:57:29.719Z,6.35
2023-02-19T03:58:00.684Z,6.27
2023-02-19T03:58:32.109Z,6.27
2023-02-19T03:59:03.179Z,6.45
2023-02-19T03:59:34.368Z,6.45
2023-02-19T04:00:06.031Z,6.45
2023-02-19T04:00:35.853Z,6.45
2023-02-19T04:01:07.157Z,6.45
2023-02-19T04:01:37.847Z,6.45
2023-02-19T04:02:10.804Z,6.62
2023-02-19T04:02:39.955Z,6.53
2023-02-19T04:03:12.819Z,6.43
2023-02-19T04:03:41.778Z,6.43
2023-02-19T04:04:14.062Z,6.43
2023-02-19T04:04:44.207Z,6.25
2023-02-19T04:05:15.383Z,6.25
2023-02-19T04:05:46.234Z,6.25
2023-02-19T04:06:17.144Z,6.25
2023-02-19T04:06:47.798Z,6.25
2023-02-19T04:07:19.223Z,6.25
2023-02-19T04:07:50.324Z,6.25
2023-02-19T04:08:20.853Z,6.25
2023-02-19T04:08:52.141Z,6.43
2023-02-19T04:09:23.433Z,6.25
2023-02-19T04:09:54.044Z,6.25
2023-02-19T04:10:25.329Z,6.25
2023-02-19T04:10:55.757Z,6.25
2023-02-19T04:11:26.995Z,6.25
2023-02-19T04:11:58.244Z,6.25
2023-02-19T04:12:28.856Z,6.43
2023-02-19T04:13:00.105Z,6.43
2023-02-19T04:13:30.859Z,6.43
2023-02-19T04:14:01.769Z,6.43
2023-02-19T04:14:32.752Z,6.25
2023-02-19T04:15:04.622Z,6.25
2023-02-19T04:15:35.151Z,6.25
2023-02-19T04:16:06.152Z,6.25
2023-02-19T04:16:36.880Z,6.43
2023-02-19T04:17:08.118Z,6.25
2023-02-19T04:17:39.067Z,6.25
2023-02-19T04:18:10.158Z,6.33
2023-02-19T04:18:41.116Z,6.33
2023-02-19T04:19:11.884Z,6.33
2023-02-19T04:19:42.841Z,6.15
2023-02-19T04:20:14.799Z,6.15
2023-02-19T04:20:44.882Z,6.33
2023-02-19T04:21:16.116Z,6.33
2023-02-19T04:21:47.332Z,6.33
2023-02-19T04:22:18.059Z,6.33
2023-02-19T04:22:49.193Z,6.23
2023-02-19T04:23:20.141Z,6.23
2023-02-19T04:23:50.931Z,6.23
2023-02-19T04:24:21.935Z,6.23
2023-02-19T04:24:52.939Z,6.23
2023-02-19T04:25:24.462Z,6.23
2023-02-19T04:25:55.166Z,6.05
2023-02-19T04:26:26.355Z,6.15
2023-02-19T04:26:56.809Z,6.15
2023-02-19T04:27:28.080Z,6.15
2023-02-19T04:27:58.979Z,6.33
2023-02-19T04:28:29.809Z,6.33
2023-02-19T04:29:01.229Z,6.23
2023-02-19T04:29:32.278Z,6.23
2023-02-19T04:30:03.885Z,6.23
2023-02-19T04:30:34.431Z,6.23
2023-02-19T04:31:04.813Z,6.05
2023-02-19T04:31:36.153Z,6.05
2023-02-19T04:32:07.014Z,6.05
2023-02-19T04:32:37.877Z,6.23
2023-02-19T04:33:09.087Z,6.05
2023-02-19T04:33:42.036Z,6.05
2023-02-19T04:34:10.908Z,6.23
2023-02-19T04:34:44.497Z,6.23
2023-02-19T04:35:13.361Z,6.05
2023-02-19T04:35:45.373Z,6.23
2023-02-19T04:36:15.028Z,6.23
2023-02-19T04:36:48.916Z,6.13
2023-02-19T04:37:16.912Z,6.13
2023-02-19T04:37:47.990Z,6.05
2023-02-19T04:38:19.172Z,6.05
2023-02-19T04:38:50.449Z,6.05
2023-02-19T04:39:20.848Z,6.23
2023-02-19T04:39:52.027Z,6.05
2023-02-19T04:40:24.028Z,6.05
2023-02-19T04:40:54.303Z,6.05
2023-02-19T04:41:25.174Z,6.23
2023-02-19T04:41:59.621Z,6.23
2023-02-19T04:42:27.037Z,6.23
2023-02-19T04:42:57.872Z,6.13
2023-02-19T04:43:29.224Z,6.13
2023-02-19T04:44:00.507Z,6.04
2023-02-19T04:44:31.324Z,6.04
2023-02-19T04:45:03.177Z,6.04
2023-02-19T04:45:32.994Z,6.04
2023-02-19T04:46:04.104Z,6.04
2023-02-19T04:46:35.011Z,6.04
2023-02-19T04:47:06.324Z,5.96
2023-02-19T04:47:36.857Z,6.13
2023-02-19T04:48:08.109Z,6.13
2023-02-19T04:48:38.934Z,6.13
2023-02-19T04:49:10.434Z,6.13
2023-02-19T04:49:40.976Z,6.20
2023-02-19T04:50:12.588Z,6.20
2023-02-19T04:50:42.939Z,6.10
2023-02-19T04:51:14.321Z,5.94
2023-02-19T04:51:45.241Z,5.94
2023-02-19T04:52:15.912Z,5.94
2023-02-19T04:52:47.281Z,5.94
2023-02-19T04:53:18.163Z,5.94
2023-02-19T04:53:49.329Z,6.04
2023-02-19T04:54:20.430Z,6.04
2023-02-19T04:54:51.146Z,6.04
2023-02-19T04:55:22.234Z,5.96
2023-02-19T04:55:53.322Z,5.96
2023-02-19T04:56:23.943Z,5.96
2023-02-19T04:56:55.003Z,6.13
2023-02-19T04:57:25.944Z,6.13
2023-02-19T04:57:57.157Z,5.96
2023-02-19T04:58:27.982Z,5.96
2023-02-19T04:58:58.972Z,6.13
2023-02-19T04:59:30.431Z,6.13
2023-02-19T05:00:01.791Z,6.13
2023-02-19T05:00:32.561Z,5.96
2023-02-19T05:01:03.315Z,5.96
2023-02-19T05:01:34.010Z,5.96
2023-02-19T05:02:05.232Z,5.96
2023-02-19T05:02:36.163Z,6.13
2023-02-19T05:03:07.064Z,5.96
2023-02-19T05:03:38.141Z,5.96
2023-02-19T05:04:09.333Z,6.13
2023-02-19T05:04:40.577Z,6.13
2023-02-19T05:05:12.761Z,6.13
2023-02-19T05:05:41.957Z,6.13
2023-02-19T05:06:13.544Z,6.04
2023-02-19T05:06:44.286Z,5.86
2023-02-19T05:07:15.464Z,5.86
2023-02-19T05:07:45.960Z,5.96
2023-02-19T05:08:16.947Z,5.96
2023-02-19T05:08:47.968Z,6.05
2023-02-19T05:09:19.057Z,6.05
2023-02-19T05:09:50.263Z,6.05
2023-02-19T05:10:21.958Z,6.05
2023-02-19T05:10:52.033Z,6.05
2023-02-19T05:11:23.008Z,6.05
2023-02-19T05:11:54.442Z,6.05
2023-02-19T05:12:24.932Z,6.05
2023-02-19T05:12:57.933Z,6.05
2023-02-19T05:13:27.404Z,6.05
2023-02-19T05:13:58.079Z,6.05
2023-02-19T05:14:29.042Z,6.05
2023-02-19T05:15:00.438Z,6.05
2023-02-19T05:15:32.320Z,6.05
2023-02-19T05:16:01.975Z,6.23
2023-02-19T05:16:33.283Z,6.05
2023-02-19T05:17:04.391Z,6.05
2023-02-19T05:17:35.030Z,6.05
2023-02-19T05:18:06.387Z,6.05
2023-02-19T05:18:37.117Z,6.05
2023-02-19T05:19:08.719Z,6.05
2023-02-19T05:19:39.155Z,6.05
2023-02-19T05:20:10.402Z,6.05
2023-02-19T05:20:40.929Z,6.05
2023-02-19T05:21:12.648Z,6.05
2023-02-19T05:21:43.292Z,6.05
2023-02-19T05:22:14.098Z,6.05
2023-02-19T05:22:45.463Z,6.05
2023-02-19T05:23:16.391Z,6.05
2023-02-19T05:23:47.233Z,6.05
2023-02-19T05:24:18.428Z,6.05
2023-02-19T05:24:49.329Z,6.05
2023-02-19T05:25:20.800Z,6.05
2023-02-19T05:25:51.533Z,6.05
2023-02-19T05:26:22.275Z,6.05
2023-02-19T05:26:53.093Z,6.05
2023-02-19T05:27:24.098Z,6.05
2023-02-19T05:27:55.092Z,6.05
2023-02-19T05:28:26.134Z,6.05
2023-02-19T05:28:56.993Z,6.05
2023-02-19T05:29:28.031Z,6.05
2023-02-19T05:29:59.435Z,6.05
2023-02-19T05:30:31.426Z,6.05
2023-02-19T05:31:01.488Z,6.05
2023-02-19T05:31:33.328Z,6.05
2023-02-19T05:32:03.336Z,6.23
2023-02-19T05:32:34.003Z,6.23
2023-02-19T05:33:05.313Z,6.05
2023-02-19T05:33:36.102Z,6.05
2023-02-19T05:34:07.334Z,6.05
2023-02-19T05:34:38.262Z,6.05
2023-02-19T05:35:09.863Z,6.05
2023-02-19T05:35:40.068Z,6.23
2023-02-19T05:36:11.106Z,6.23
2023-02-19T05:36:43.277Z,6.05
2023-02-19T05:37:13.000Z,6.23
2023-02-19T05:37:45.738Z,6.23
2023-02-19T05:38:15.058Z,6.13
2023-02-19T05:38:46.555Z,5.96
2023-02-19T05:39:17.348Z,5.96
2023-02-19T05:39:48.114Z,5.96
2023-02-19T05:40:19.540Z,6.13
2023-02-19T05:40:50.051Z,6.13
2023-02-19T05:41:21.199Z,6.05
2023-02-19T05:41:52.348Z,6.05
2023-02-19T05:42:23.295Z,6.05
2023-02-19T05:42:54.705Z,6.05
2023-02-19T05:43:25.489Z,6.05
2023-02-19T05:43:56.122Z,6.05
2023-02-19T05:44:27.515Z,6.23
2023-02-19T05:44:57.999Z,6.23
2023-02-19T05:45:29.913Z,6.05
2023-02-19T05:46:00.182Z,6.05
2023-02-19T05:46:31.425Z,6.05
2023-02-19T05:47:02.067Z,6.05
2023-02-19T05:47:33.384Z,6.05
2023-02-19T05:48:05.054Z,6.05
2023-02-19T05:48:35.329Z,6.05
2023-02-19T05:49:06.042Z,6.05
2023-02-19T05:49:37.138Z,6.05
2023-02-19T05:50:09.088Z,6.05
2023-02-19T05:50:39.995Z,6.23
2023-02-19T05:51:10.571Z,6.23
2023-02-19T05:51:41.338Z,6.23
2023-02-19T05:52:12.513Z,6.13
2023-02-19T05:52:43.555Z,5.96
2023-02-19T05:53:14.032Z,5.96
2023-02-19T05:53:45.100Z,6.05
2023-02-19T05:54:16.235Z,6.05
2023-02-19T05:54:47.429Z,6.05
2023-02-19T05:55:18.900Z,6.05
2023-02-19T05:55:49.532Z,6.05
2023-02-19T05:56:20.141Z,6.05
2023-02-19T05:56:51.168Z,6.05
2023-02-19T05:57:23.163Z,6.05
2023-02-19T05:57:53.189Z,6.05
2023-02-19T05:58:24.151Z,6.23
2023-02-19T05:58:55.268Z,6.23
2023-02-19T05:59:26.452Z,6.23
2023-02-19T05:59:57.388Z,6.23
2023-02-19T06:00:29.259Z,6.13
2023-02-19T06:00:59.572Z,6.30
2023-02-19T06:01:30.422Z,6.30
2023-02-19T06:02:01.634Z,6.30
2023-02-19T06:02:32.678Z,6.30
2023-02-19T06:03:03.257Z,6.30
2023-02-19T06:03:34.194Z,6.13
2023-02-19T06:04:05.667Z,6.30
2023-02-19T06:04:36.169Z,6.30
2023-02-19T06:05:07.840Z,6.30
2023-02-19T06:05:38.116Z,6.30
2023-02-19T06:06:10.045Z,6.13
2023-02-19T06:06:40.353Z,6.30
2023-02-19T06:07:11.187Z,6.30
2023-02-19T06:07:42.563Z,6.30
2023-02-19T06:08:14.448Z,6.30
2023-02-19T06:08:44.203Z,6.30
2023-02-19T06:09:16.820Z,6.13
2023-02-19T06:09:46.121Z,6.13
2023-02-19T06:10:18.507Z,6.13
2023-02-19T06:10:48.288Z,6.13
2023-02-19T06:11:19.229Z,6.23
2023-02-19T06:11:50.444Z,6.23
2023-02-19T06:12:21.772Z,6.23
2023-02-19T06:12:52.338Z,6.23
2023-02-19T06:13:23.277Z,6.23
2023-02-19T06:13:54.196Z,6.23
2023-02-19T06:14:25.397Z,6.23
2023-02-19T06:14:56.164Z,6.40
2023-02-19T06:15:28.708Z,6.40
2023-02-19T06:15:58.529Z,6.40
2023-02-19T06:16:29.355Z,6.40
2023-02-19T06:17:00.604Z,6.40
2023-02-19T06:17:31.304Z,6.30
2023-02-19T06:18:02.319Z,6.56
2023-02-19T06:18:33.393Z,6.47
2023-02-19T06:19:04.542Z,6.47
2023-02-19T06:19:35.257Z,6.47
2023-02-19T06:20:06.646Z,6.47
2023-02-19T06:20:37.218Z,6.47
2023-02-19T06:21:08.503Z,6.47
2023-02-19T06:21:39.474Z,6.63
2023-02-19T06:22:10.554Z,6.63
2023-02-19T06:22:41.174Z,6.63
2023-02-19T06:23:12.625Z,6.80
2023-02-19T06:23:43.607Z,6.70
2023-02-19T06:24:14.558Z,6.70
2023-02-19T06:24:46.058Z,6.60
2023-02-19T06:25:16.829Z,6.75
2023-02-19T06:25:47.443Z,6.75
2023-02-19T06:26:18.133Z,6.75
2023-02-19T06:26:49.174Z,6.65
2023-02-19T06:27:20.601Z,6.82
2023-02-19T06:27:51.725Z,6.82
2023-02-19T06:28:22.194Z,6.82
2023-02-19T06:28:53.278Z,6.82
2023-02-19T06:29:24.299Z,6.82
2023-02-19T06:29:55.336Z,6.82
2023-02-19T06:30:27.696Z,6.82
2023-02-19T06:30:57.271Z,6.82
2023-02-19T06:31:28.379Z,6.82
2023-02-19T06:31:59.594Z,6.82
2023-02-19T06:32:30.388Z,6.98
2023-02-19T06:33:01.871Z,6.98
2023-02-19T06:33:32.358Z,6.98
2023-02-19T06:34:03.606Z,6.98
2023-02-19T06:34:34.220Z,6.89
2023-02-19T06:35:05.953Z,7.04
2023-02-19T06:35:36.362Z,7.04
2023-02-19T06:36:07.710Z,7.04
2023-02-19T06:36:38.642Z,7.04
2023-02-19T06:37:09.720Z,7.04
2023-02-19T06:37:40.448Z,7.04
2023-02-19T06:38:11.874Z,6.94
2023-02-19T06:38:42.523Z,6.94
2023-02-19T06:39:13.606Z,6.94
2023-02-19T06:39:46.223Z,6.94
2023-02-19T06:40:16.271Z,6.94
2023-02-19T06:40:46.992Z,6.94
2023-02-19T06:41:17.442Z,6.94
2023-02-19T06:41:48.668Z,6.94
2023-02-19T06:42:19.387Z,6.94
2023-02-19T06:42:50.536Z,7.04
2023-02-19T06:43:21.674Z,7.04
2023-02-19T06:43:52.419Z,7.04
2023-02-19T06:44:23.579Z,7.04
2023-02-19T06:44:54.690Z,7.04
2023-02-19T06:45:27.716Z,7.04
2023-02-19T06:45:56.784Z,7.04
2023-02-19T06:46:27.455Z,7.04
2023-02-19T06:46:58.671Z,7.04
2023-02-19T06:47:29.338Z,7.04
2023-02-19T06:48:00.624Z,7.19
2023-02-19T06:48:31.662Z,7.09
2023-02-19T06:49:02.378Z,7.09
2023-02-19T06:49:33.441Z,7.09
2023-02-19T06:50:04.752Z,7.09
2023-02-19T06:50:35.453Z,7.09
2023-02-19T06:51:06.305Z,7.09
2023-02-19T06:51:37.840Z,7.09
2023-02-19T06:52:08.930Z,7.09
2023-02-19T06:52:39.466Z,7.09